sensor_id;sensor_type;location;lat;lon;timestamp;P1;durP1;ratioP1;P2;durP2;ratioP2
24259;SDS011;12384;48.112;18.418;2022-09-09T00:01:22;12.20;;;11.60;;
24259;SDS011;12384;48.112;18.418;2022-09-09T00:03:59;12.37;;;11.77;;
24259;SDS011;12384;48.112;18.418;2022-09-09T00:06:31;12.40;;;11.80;;
24259;SDS011;12384;48.112;18.418;2022-09-09T00:09:05;12.30;;;11.70;;
24259;SDS011;12384;48.112;18.418;2022-09-09T00:11:40;12.50;;;11.80;;
24259;SDS011;12384;48.112;18.418;2022-09-09T00:14:16;12.40;;;11.70;;
24259;SDS011;12384;48.112;18.418;2022-09-09T00:16:51;12.90;;;12.20;;
24259;SDS011;12384;48.112;18.418;2022-09-09T00:19:24;12.53;;;11.80;;
24259;SDS011;12384;48.112;18.418;2022-09-09T00:22:02;13.03;;;12.33;;
24259;SDS011;12384;48.112;18.418;2022-09-09T00:24:43;13.00;;;12.30;;
24259;SDS011;12384;48.112;18.418;2022-09-09T00:27:16;12.80;;;12.10;;
24259;SDS011;12384;48.112;18.418;2022-09-09T00:29:51;12.60;;;12.00;;
24259;SDS011;12384;48.112;18.418;2022-09-09T00:32:22;12.80;;;12.10;;
24259;SDS011;12384;48.112;18.418;2022-09-09T00:34:57;12.80;;;12.10;;
24259;SDS011;12384;48.112;18.418;2022-09-09T00:37:29;12.90;;;12.20;;
24259;SDS011;12384;48.112;18.418;2022-09-09T00:40:02;13.27;;;12.57;;
24259;SDS011;12384;48.112;18.418;2022-09-09T00:42:45;13.33;;;12.63;;
24259;SDS011;12384;48.112;18.418;2022-09-09T00:45:27;13.30;;;12.60;;
24259;SDS011;12384;48.112;18.418;2022-09-09T00:48:09;12.70;;;12.00;;
24259;SDS011;12384;48.112;18.418;2022-09-09T00:50:43;13.03;;;12.33;;
24259;SDS011;12384;48.112;18.418;2022-09-09T00:53:23;13.20;;;12.50;;
24259;SDS011;12384;48.112;18.418;2022-09-09T00:56:04;13.40;;;12.70;;
24259;SDS011;12384;48.112;18.418;2022-09-09T00:58:40;13.47;;;12.77;;
24259;SDS011;12384;48.112;18.418;2022-09-09T01:01:11;13.60;;;12.80;;
24259;SDS011;12384;48.112;18.418;2022-09-09T01:03:42;13.70;;;13.00;;
24259;SDS011;12384;48.112;18.418;2022-09-09T01:06:18;13.77;;;13.07;;
24259;SDS011;12384;48.112;18.418;2022-09-09T01:11:46;13.83;;;13.13;;
24259;SDS011;12384;48.112;18.418;2022-09-09T01:14:32;13.60;;;12.90;;
24259;SDS011;12384;48.112;18.418;2022-09-09T01:17:09;13.90;;;13.20;;
24259;SDS011;12384;48.112;18.418;2022-09-09T01:20:00;14.07;;;13.27;;
24259;SDS011;12384;48.112;18.418;2022-09-09T01:22:44;13.63;;;12.83;;
24259;SDS011;12384;48.112;18.418;2022-09-09T01:25:29;13.30;;;12.60;;
24259;SDS011;12384;48.112;18.418;2022-09-09T01:28:22;13.57;;;12.87;;
24259;SDS011;12384;48.112;18.418;2022-09-09T01:31:00;13.40;;;12.70;;
24259;SDS011;12384;48.112;18.418;2022-09-09T01:33:37;12.83;;;12.13;;
24259;SDS011;12384;48.112;18.418;2022-09-09T01:36:06;13.10;;;12.40;;
24259;SDS011;12384;48.112;18.418;2022-09-09T01:38:49;13.37;;;12.67;;
24259;SDS011;12384;48.112;18.418;2022-09-09T01:41:18;12.63;;;12.00;;
24259;SDS011;12384;48.112;18.418;2022-09-09T01:44:03;12.70;;;12.00;;
24259;SDS011;12384;48.112;18.418;2022-09-09T01:46:34;12.90;;;12.20;;
24259;SDS011;12384;48.112;18.418;2022-09-09T01:49:05;13.20;;;12.50;;
24259;SDS011;12384;48.112;18.418;2022-09-09T01:51:36;13.03;;;12.33;;
24259;SDS011;12384;48.112;18.418;2022-09-09T01:54:09;12.97;;;12.27;;
24259;SDS011;12384;48.112;18.418;2022-09-09T01:56:40;13.00;;;12.30;;
24259;SDS011;12384;48.112;18.418;2022-09-09T01:59:23;13.33;;;12.53;;
24259;SDS011;12384;48.112;18.418;2022-09-09T02:02:08;13.00;;;12.30;;
24259;SDS011;12384;48.112;18.418;2022-09-09T02:04:47;13.00;;;12.20;;
24259;SDS011;12384;48.112;18.418;2022-09-09T02:07:32;12.90;;;12.20;;
24259;SDS011;12384;48.112;18.418;2022-09-09T02:10:19;12.80;;;12.10;;
24259;SDS011;12384;48.112;18.418;2022-09-09T02:13:01;12.90;;;12.20;;
24259;SDS011;12384;48.112;18.418;2022-09-09T02:15:38;12.60;;;11.90;;
24259;SDS011;12384;48.112;18.418;2022-09-09T02:18:11;12.80;;;12.10;;
24259;SDS011;12384;48.112;18.418;2022-09-09T02:20:43;12.47;;;11.87;;
24259;SDS011;12384;48.112;18.418;2022-09-09T02:23:12;12.73;;;12.03;;
24259;SDS011;12384;48.112;18.418;2022-09-09T02:25:45;13.13;;;12.43;;
24259;SDS011;12384;48.112;18.418;2022-09-09T02:28:20;12.70;;;12.00;;
24259;SDS011;12384;48.112;18.418;2022-09-09T02:30:53;12.80;;;12.10;;
24259;SDS011;12384;48.112;18.418;2022-09-09T02:33:30;12.90;;;12.20;;
24259;SDS011;12384;48.112;18.418;2022-09-09T02:36:04;13.10;;;12.40;;
24259;SDS011;12384;48.112;18.418;2022-09-09T02:38:37;12.37;;;11.67;;
24259;SDS011;12384;48.112;18.418;2022-09-09T02:41:14;12.97;;;12.27;;
24259;SDS011;12384;48.112;18.418;2022-09-09T02:43:43;12.90;;;12.20;;
24259;SDS011;12384;48.112;18.418;2022-09-09T02:46:18;12.90;;;12.20;;
24259;SDS011;12384;48.112;18.418;2022-09-09T02:48:59;13.40;;;12.60;;
24259;SDS011;12384;48.112;18.418;2022-09-09T02:51:39;13.50;;;12.80;;
24259;SDS011;12384;48.112;18.418;2022-09-09T02:54:17;13.00;;;12.30;;
24259;SDS011;12384;48.112;18.418;2022-09-09T02:56:52;12.70;;;12.00;;
24259;SDS011;12384;48.112;18.418;2022-09-09T02:59:30;13.30;;;12.60;;
24259;SDS011;12384;48.112;18.418;2022-09-09T03:02:01;12.80;;;12.10;;
24259;SDS011;12384;48.112;18.418;2022-09-09T03:04:30;13.47;;;12.53;;
24259;SDS011;12384;48.112;18.418;2022-09-09T03:06:59;13.10;;;12.40;;
24259;SDS011;12384;48.112;18.418;2022-09-09T03:09:30;13.37;;;12.57;;
24259;SDS011;12384;48.112;18.418;2022-09-09T03:11:59;13.57;;;12.67;;
24259;SDS011;12384;48.112;18.418;2022-09-09T03:14:30;13.67;;;12.97;;
24259;SDS011;12384;48.112;18.418;2022-09-09T03:17:00;13.70;;;13.00;;
24259;SDS011;12384;48.112;18.418;2022-09-09T03:19:35;13.87;;;13.07;;
24259;SDS011;12384;48.112;18.418;2022-09-09T03:22:07;13.60;;;12.70;;
24259;SDS011;12384;48.112;18.418;2022-09-09T03:24:41;13.37;;;12.67;;
24259;SDS011;12384;48.112;18.418;2022-09-09T03:27:09;12.77;;;12.07;;
24259;SDS011;12384;48.112;18.418;2022-09-09T03:29:39;12.50;;;11.80;;
24259;SDS011;12384;48.112;18.418;2022-09-09T03:32:13;12.80;;;12.10;;
24259;SDS011;12384;48.112;18.418;2022-09-09T03:34:42;12.93;;;12.23;;
24259;SDS011;12384;48.112;18.418;2022-09-09T03:37:12;12.90;;;12.20;;
24259;SDS011;12384;48.112;18.418;2022-09-09T03:39:41;12.80;;;12.10;;
24259;SDS011;12384;48.112;18.418;2022-09-09T03:42:11;12.93;;;12.23;;
24259;SDS011;12384;48.112;18.418;2022-09-09T03:44:48;12.80;;;12.10;;
24259;SDS011;12384;48.112;18.418;2022-09-09T03:47:22;13.10;;;12.40;;
24259;SDS011;12384;48.112;18.418;2022-09-09T03:49:55;13.20;;;12.50;;
24259;SDS011;12384;48.112;18.418;2022-09-09T03:52:24;13.10;;;12.40;;
24259;SDS011;12384;48.112;18.418;2022-09-09T03:54:53;12.83;;;12.13;;
24259;SDS011;12384;48.112;18.418;2022-09-09T03:57:23;13.07;;;12.37;;
24259;SDS011;12384;48.112;18.418;2022-09-09T03:59:51;13.60;;;12.80;;
24259;SDS011;12384;48.112;18.418;2022-09-09T04:02:22;12.80;;;12.10;;
24259;SDS011;12384;48.112;18.418;2022-09-09T04:04:50;13.80;;;13.00;;
24259;SDS011;12384;48.112;18.418;2022-09-09T04:07:19;13.40;;;12.70;;
24259;SDS011;12384;48.112;18.418;2022-09-09T04:09:48;13.03;;;12.33;;
24259;SDS011;12384;48.112;18.418;2022-09-09T04:12:17;13.40;;;12.70;;
24259;SDS011;12384;48.112;18.418;2022-09-09T04:14:46;13.50;;;12.80;;
24259;SDS011;12384;48.112;18.418;2022-09-09T04:17:14;13.57;;;12.87;;
24259;SDS011;12384;48.112;18.418;2022-09-09T04:19:45;14.60;;;13.80;;
24259;SDS011;12384;48.112;18.418;2022-09-09T04:22:13;14.13;;;13.33;;
24259;SDS011;12384;48.112;18.418;2022-09-09T04:24:42;14.20;;;13.40;;
24259;SDS011;12384;48.112;18.418;2022-09-09T04:27:16;14.20;;;13.40;;
24259;SDS011;12384;48.112;18.418;2022-09-09T04:29:45;13.83;;;13.03;;
24259;SDS011;12384;48.112;18.418;2022-09-09T04:32:13;13.70;;;12.90;;
24259;SDS011;12384;48.112;18.418;2022-09-09T04:34:41;13.57;;;12.77;;
24259;SDS011;12384;48.112;18.418;2022-09-09T04:37:12;13.87;;;13.07;;
24259;SDS011;12384;48.112;18.418;2022-09-09T04:39:42;13.40;;;12.70;;
24259;SDS011;12384;48.112;18.418;2022-09-09T04:42:11;13.53;;;12.73;;
24259;SDS011;12384;48.112;18.418;2022-09-09T04:44:41;12.83;;;12.10;;
24259;SDS011;12384;48.112;18.418;2022-09-09T04:47:10;12.93;;;12.23;;
24259;SDS011;12384;48.112;18.418;2022-09-09T04:49:41;13.00;;;12.30;;
24259;SDS011;12384;48.112;18.418;2022-09-09T04:52:09;12.80;;;12.10;;
24259;SDS011;12384;48.112;18.418;2022-09-09T04:54:39;12.40;;;11.70;;
24259;SDS011;12384;48.112;18.418;2022-09-09T04:57:10;12.40;;;11.70;;
24259;SDS011;12384;48.112;18.418;2022-09-09T04:59:44;11.27;;;10.67;;
24259;SDS011;12384;48.112;18.418;2022-09-09T05:02:14;11.50;;;10.90;;
24259;SDS011;12384;48.112;18.418;2022-09-09T05:04:42;12.20;;;11.50;;
24259;SDS011;12384;48.112;18.418;2022-09-09T05:07:12;11.60;;;11.00;;
24259;SDS011;12384;48.112;18.418;2022-09-09T05:09:42;11.70;;;11.10;;
24259;SDS011;12384;48.112;18.418;2022-09-09T05:12:11;12.07;;;11.37;;
24259;SDS011;12384;48.112;18.418;2022-09-09T05:14:46;12.37;;;11.67;;
24259;SDS011;12384;48.112;18.418;2022-09-09T05:17:15;12.20;;;11.60;;
24259;SDS011;12384;48.112;18.418;2022-09-09T05:19:44;12.00;;;11.40;;
24259;SDS011;12384;48.112;18.418;2022-09-09T05:22:13;11.40;;;10.80;;
24259;SDS011;12384;48.112;18.418;2022-09-09T05:24:49;12.47;;;11.77;;
24259;SDS011;12384;48.112;18.418;2022-09-09T05:27:18;10.70;;;10.10;;
24259;SDS011;12384;48.112;18.418;2022-09-09T05:29:47;10.77;;;10.20;;
24259;SDS011;12384;48.112;18.418;2022-09-09T05:32:16;10.93;;;10.33;;
24259;SDS011;12384;48.112;18.418;2022-09-09T05:34:47;10.80;;;10.30;;
24259;SDS011;12384;48.112;18.418;2022-09-09T05:37:16;10.53;;;10.03;;
24259;SDS011;12384;48.112;18.418;2022-09-09T05:39:45;10.93;;;10.33;;
24259;SDS011;12384;48.112;18.418;2022-09-09T05:42:15;10.70;;;10.00;;
24259;SDS011;12384;48.112;18.418;2022-09-09T05:44:43;10.40;;;9.80;;
24259;SDS011;12384;48.112;18.418;2022-09-09T05:47:12;10.10;;;9.53;;
24259;SDS011;12384;48.112;18.418;2022-09-09T05:49:42;9.93;;;9.43;;
24259;SDS011;12384;48.112;18.418;2022-09-09T05:52:10;10.00;;;9.50;;
24259;SDS011;12384;48.112;18.418;2022-09-09T05:54:38;9.30;;;8.80;;
24259;SDS011;12384;48.112;18.418;2022-09-09T05:57:08;9.00;;;8.40;;
24259;SDS011;12384;48.112;18.418;2022-09-09T05:59:38;8.20;;;7.70;;
24259;SDS011;12384;48.112;18.418;2022-09-09T06:02:07;8.13;;;7.73;;
24259;SDS011;12384;48.112;18.418;2022-09-09T06:04:36;8.50;;;8.10;;
24259;SDS011;12384;48.112;18.418;2022-09-09T06:07:05;8.90;;;8.40;;
24259;SDS011;12384;48.112;18.418;2022-09-09T06:09:34;9.20;;;8.70;;
24259;SDS011;12384;48.112;18.418;2022-09-09T06:12:02;9.70;;;9.00;;
24259;SDS011;12384;48.112;18.418;2022-09-09T06:14:34;9.97;;;9.47;;
24259;SDS011;12384;48.112;18.418;2022-09-09T06:17:04;9.73;;;9.23;;
24259;SDS011;12384;48.112;18.418;2022-09-09T06:19:33;10.23;;;9.73;;
24259;SDS011;12384;48.112;18.418;2022-09-09T06:22:01;8.63;;;8.17;;
24259;SDS011;12384;48.112;18.418;2022-09-09T06:24:32;8.83;;;8.33;;
24259;SDS011;12384;48.112;18.418;2022-09-09T06:27:02;8.40;;;7.90;;
24259;SDS011;12384;48.112;18.418;2022-09-09T06:29:35;7.87;;;7.47;;
24259;SDS011;12384;48.112;18.418;2022-09-09T06:32:05;8.30;;;7.80;;
24259;SDS011;12384;48.112;18.418;2022-09-09T06:34:35;9.50;;;9.00;;
24259;SDS011;12384;48.112;18.418;2022-09-09T06:37:04;9.75;;;9.25;;
24259;SDS011;12384;48.112;18.418;2022-09-09T06:39:41;9.50;;;9.00;;
24259;SDS011;12384;48.112;18.418;2022-09-09T06:42:09;8.90;;;8.40;;
24259;SDS011;12384;48.112;18.418;2022-09-09T06:45:06;9.73;;;9.23;;
24259;SDS011;12384;48.112;18.418;2022-09-09T06:47:44;10.40;;;9.73;;
24259;SDS011;12384;48.112;18.418;2022-09-09T06:50:13;10.50;;;9.90;;
24259;SDS011;12384;48.112;18.418;2022-09-09T06:52:45;10.68;;;10.07;;
24259;SDS011;12384;48.112;18.418;2022-09-09T06:55:15;10.45;;;9.93;;
24259;SDS011;12384;48.112;18.418;2022-09-09T06:57:44;10.70;;;10.10;;
24259;SDS011;12384;48.112;18.418;2022-09-09T07:00:20;11.13;;;10.52;;
24259;SDS011;12384;48.112;18.418;2022-09-09T07:02:51;10.25;;;9.75;;
24259;SDS011;12384;48.112;18.418;2022-09-09T07:05:20;9.35;;;8.85;;
24259;SDS011;12384;48.112;18.418;2022-09-09T07:07:50;9.68;;;9.15;;
24259;SDS011;12384;48.112;18.418;2022-09-09T07:10:19;9.20;;;8.70;;
24259;SDS011;12384;48.112;18.418;2022-09-09T07:12:50;8.60;;;8.00;;
24259;SDS011;12384;48.112;18.418;2022-09-09T07:15:21;8.73;;;8.32;;
24259;SDS011;12384;48.112;18.418;2022-09-09T07:18:11;8.85;;;8.38;;
24259;SDS011;12384;48.112;18.418;2022-09-09T07:20:40;8.75;;;8.35;;
24259;SDS011;12384;48.112;18.418;2022-09-09T07:23:08;9.60;;;9.00;;
24259;SDS011;12384;48.112;18.418;2022-09-09T07:25:37;9.80;;;9.07;;
24259;SDS011;12384;48.112;18.418;2022-09-09T07:28:05;9.45;;;8.75;;
24259;SDS011;12384;48.112;18.418;2022-09-09T07:30:35;8.95;;;8.35;;
24259;SDS011;12384;48.112;18.418;2022-09-09T07:33:03;8.70;;;8.13;;
24259;SDS011;12384;48.112;18.418;2022-09-09T07:35:33;9.00;;;8.50;;
24259;SDS011;12384;48.112;18.418;2022-09-09T07:38:03;8.82;;;8.32;;
24259;SDS011;12384;48.112;18.418;2022-09-09T07:40:34;8.80;;;8.40;;
24259;SDS011;12384;48.112;18.418;2022-09-09T07:43:03;8.98;;;8.57;;
24259;SDS011;12384;48.112;18.418;2022-09-09T07:45:33;8.70;;;8.30;;
24259;SDS011;12384;48.112;18.418;2022-09-09T07:48:02;8.85;;;8.35;;
24259;SDS011;12384;48.112;18.418;2022-09-09T07:50:32;8.95;;;8.45;;
24259;SDS011;12384;48.112;18.418;2022-09-09T07:53:01;9.18;;;8.57;;
24259;SDS011;12384;48.112;18.418;2022-09-09T07:55:31;8.90;;;8.40;;
24259;SDS011;12384;48.112;18.418;2022-09-09T07:58:00;9.90;;;9.20;;
24259;SDS011;12384;48.112;18.418;2022-09-09T08:00:28;8.27;;;7.88;;
24259;SDS011;12384;48.112;18.418;2022-09-09T08:02:57;8.40;;;7.90;;
24259;SDS011;12384;48.112;18.418;2022-09-09T08:05:28;8.43;;;8.00;;
24259;SDS011;12384;48.112;18.418;2022-09-09T08:07:58;8.00;;;7.60;;
24259;SDS011;12384;48.112;18.418;2022-09-09T08:10:27;8.15;;;7.75;;
24259;SDS011;12384;48.112;18.418;2022-09-09T08:12:57;8.05;;;7.65;;
24259;SDS011;12384;48.112;18.418;2022-09-09T08:15:43;9.00;;;8.30;;
24259;SDS011;12384;48.112;18.418;2022-09-09T08:18:12;8.50;;;8.10;;
24259;SDS011;12384;48.112;18.418;2022-09-09T08:20:42;8.77;;;8.32;;
24259;SDS011;12384;48.112;18.418;2022-09-09T08:23:12;9.20;;;8.70;;
24259;SDS011;12384;48.112;18.418;2022-09-09T08:25:41;9.73;;;9.13;;
24259;SDS011;12384;48.112;18.418;2022-09-09T08:28:11;9.07;;;8.68;;
24259;SDS011;12384;48.112;18.418;2022-09-09T08:30:39;8.93;;;8.43;;
24259;SDS011;12384;48.112;18.418;2022-09-09T08:33:08;8.60;;;8.00;;
24259;SDS011;12384;48.112;18.418;2022-09-09T08:35:37;8.30;;;7.90;;
24259;SDS011;12384;48.112;18.418;2022-09-09T08:38:05;8.13;;;7.68;;
24259;SDS011;12384;48.112;18.418;2022-09-09T08:40:40;8.07;;;7.68;;
24259;SDS011;12384;48.112;18.418;2022-09-09T08:43:12;8.57;;;8.07;;
24259;SDS011;12384;48.112;18.418;2022-09-09T08:45:46;8.82;;;8.32;;
24259;SDS011;12384;48.112;18.418;2022-09-09T08:48:28;7.68;;;7.28;;
24259;SDS011;12384;48.112;18.418;2022-09-09T08:51:09;7.88;;;7.47;;
24259;SDS011;12384;48.112;18.418;2022-09-09T08:53:40;7.38;;;7.07;;
24259;SDS011;12384;48.112;18.418;2022-09-09T08:56:16;7.75;;;7.35;;
24259;SDS011;12384;48.112;18.418;2022-09-09T08:58:52;7.20;;;6.90;;
24259;SDS011;12384;48.112;18.418;2022-09-09T09:01:44;7.60;;;7.20;;
24259;SDS011;12384;48.112;18.418;2022-09-09T09:04:46;8.00;;;7.50;;
24259;SDS011;12384;48.112;18.418;2022-09-09T09:07:33;7.88;;;7.47;;
24259;SDS011;12384;48.112;18.418;2022-09-09T09:10:19;7.75;;;7.35;;
24259;SDS011;12384;48.112;18.418;2022-09-09T09:13:10;7.53;;;7.20;;
24259;SDS011;12384;48.112;18.418;2022-09-09T09:15:46;6.95;;;6.65;;
24259;SDS011;12384;48.112;18.418;2022-09-09T09:18:19;7.43;;;7.13;;
24259;SDS011;12384;48.112;18.418;2022-09-09T09:20:50;7.65;;;7.25;;
24259;SDS011;12384;48.112;18.418;2022-09-09T09:23:24;7.53;;;7.22;;
24259;SDS011;12384;48.112;18.418;2022-09-09T09:25:58;8.05;;;7.65;;
24259;SDS011;12384;48.112;18.418;2022-09-09T09:28:31;7.38;;;7.07;;
24259;SDS011;12384;48.112;18.418;2022-09-09T09:31:10;8.10;;;7.70;;
24259;SDS011;12384;48.112;18.418;2022-09-09T09:33:46;8.20;;;7.80;;
24259;SDS011;12384;48.112;18.418;2022-09-09T09:36:18;7.97;;;7.57;;
24259;SDS011;12384;48.112;18.418;2022-09-09T09:38:51;7.90;;;7.50;;
24259;SDS011;12384;48.112;18.418;2022-09-09T09:41:43;7.70;;;7.30;;
24259;SDS011;12384;48.112;18.418;2022-09-09T09:44:25;7.60;;;7.20;;
24259;SDS011;12384;48.112;18.418;2022-09-09T09:47:07;7.75;;;7.35;;
24259;SDS011;12384;48.112;18.418;2022-09-09T09:49:37;7.70;;;7.30;;
24259;SDS011;12384;48.112;18.418;2022-09-09T09:52:06;7.55;;;7.15;;
24259;SDS011;12384;48.112;18.418;2022-09-09T09:54:42;7.68;;;7.28;;
24259;SDS011;12384;48.112;18.418;2022-09-09T09:57:10;7.82;;;7.43;;
24259;SDS011;12384;48.112;18.418;2022-09-09T09:59:44;7.63;;;7.22;;
24259;SDS011;12384;48.112;18.418;2022-09-09T10:02:23;6.88;;;6.57;;
24259;SDS011;12384;48.112;18.418;2022-09-09T10:05:05;7.15;;;6.85;;
24259;SDS011;12384;48.112;18.418;2022-09-09T10:07:43;7.00;;;6.70;;
24259;SDS011;12384;48.112;18.418;2022-09-09T10:10:15;7.40;;;7.10;;
24259;SDS011;12384;48.112;18.418;2022-09-09T10:12:52;7.68;;;7.28;;
24259;SDS011;12384;48.112;18.418;2022-09-09T10:15:32;7.68;;;7.28;;
24259;SDS011;12384;48.112;18.418;2022-09-09T10:18:18;7.50;;;7.10;;
24259;SDS011;12384;48.112;18.418;2022-09-09T10:21:03;7.55;;;7.15;;
24259;SDS011;12384;48.112;18.418;2022-09-09T10:23:46;7.80;;;7.43;;
24259;SDS011;12384;48.112;18.418;2022-09-09T10:26:37;7.28;;;6.97;;
24259;SDS011;12384;48.112;18.418;2022-09-09T10:32:14;7.03;;;6.72;;
24259;SDS011;12384;48.112;18.418;2022-09-09T10:34:58;7.40;;;7.00;;
24259;SDS011;12384;48.112;18.418;2022-09-09T10:37:36;7.00;;;6.70;;
24259;SDS011;12384;48.112;18.418;2022-09-09T10:40:17;7.25;;;6.95;;
24259;SDS011;12384;48.112;18.418;2022-09-09T10:42:58;7.00;;;6.70;;
24259;SDS011;12384;48.112;18.418;2022-09-09T10:45:34;7.50;;;7.10;;
24259;SDS011;12384;48.112;18.418;2022-09-09T10:48:14;7.00;;;6.70;;
24259;SDS011;12384;48.112;18.418;2022-09-09T10:51:01;6.57;;;6.28;;
24259;SDS011;12384;48.112;18.418;2022-09-09T10:53:45;7.47;;;7.07;;
24259;SDS011;12384;48.112;18.418;2022-09-09T10:56:21;9.25;;;8.75;;
24259;SDS011;12384;48.112;18.418;2022-09-09T10:58:52;8.48;;;8.07;;
24259;SDS011;12384;48.112;18.418;2022-09-09T11:01:25;8.13;;;7.72;;
24259;SDS011;12384;48.112;18.418;2022-09-09T11:04:00;8.45;;;7.95;;
24259;SDS011;12384;48.112;18.418;2022-09-09T11:06:34;6.63;;;6.32;;
24259;SDS011;12384;48.112;18.418;2022-09-09T11:09:13;6.80;;;6.50;;
24259;SDS011;12384;48.112;18.418;2022-09-09T11:11:46;6.95;;;6.65;;
24259;SDS011;12384;48.112;18.418;2022-09-09T11:14:22;6.47;;;6.18;;
24259;SDS011;12384;48.112;18.418;2022-09-09T11:17:03;7.00;;;6.70;;
24259;SDS011;12384;48.112;18.418;2022-09-09T11:19:39;7.20;;;6.90;;
24259;SDS011;12384;48.112;18.418;2022-09-09T11:22:14;7.55;;;7.15;;
24259;SDS011;12384;48.112;18.418;2022-09-09T11:24:48;7.63;;;7.22;;
24259;SDS011;12384;48.112;18.418;2022-09-09T11:27:21;7.45;;;7.15;;
24259;SDS011;12384;48.112;18.418;2022-09-09T11:30:02;7.38;;;6.88;;
24259;SDS011;12384;48.112;18.418;2022-09-09T11:33:14;7.30;;;6.90;;
24259;SDS011;12384;48.112;18.418;2022-09-09T11:36:08;7.45;;;7.05;;
24259;SDS011;12384;48.112;18.418;2022-09-09T11:38:58;7.25;;;6.85;;
24259;SDS011;12384;48.112;18.418;2022-09-09T11:41:33;7.30;;;6.80;;
24259;SDS011;12384;48.112;18.418;2022-09-09T11:44:09;6.95;;;6.65;;
24259;SDS011;12384;48.112;18.418;2022-09-09T11:46:40;6.85;;;6.55;;
24259;SDS011;12384;48.112;18.418;2022-09-09T11:49:22;7.05;;;6.75;;
24259;SDS011;12384;48.112;18.418;2022-09-09T11:51:55;8.02;;;7.45;;
24259;SDS011;12384;48.112;18.418;2022-09-09T11:54:28;7.40;;;7.00;;
24259;SDS011;12384;48.112;18.418;2022-09-09T11:56:58;7.05;;;6.75;;
24259;SDS011;12384;48.112;18.418;2022-09-09T11:59:28;6.95;;;6.50;;
24259;SDS011;12384;48.112;18.418;2022-09-09T12:01:58;6.60;;;6.30;;
24259;SDS011;12384;48.112;18.418;2022-09-09T12:04:30;6.80;;;6.50;;
24259;SDS011;12384;48.112;18.418;2022-09-09T12:07:03;6.60;;;6.15;;
24259;SDS011;12384;48.112;18.418;2022-09-09T12:09:43;6.35;;;6.05;;
24259;SDS011;12384;48.112;18.418;2022-09-09T12:12:26;6.60;;;6.30;;
24259;SDS011;12384;48.112;18.418;2022-09-09T12:15:01;7.45;;;6.95;;
24259;SDS011;12384;48.112;18.418;2022-09-09T12:17:48;6.50;;;6.20;;
24259;SDS011;12384;48.112;18.418;2022-09-09T12:20:19;6.05;;;5.72;;
24259;SDS011;12384;48.112;18.418;2022-09-09T12:23:02;6.80;;;6.40;;
24259;SDS011;12384;48.112;18.418;2022-09-09T12:25:49;7.07;;;6.78;;
24259;SDS011;12384;48.112;18.418;2022-09-09T12:28:27;7.03;;;6.70;;
24259;SDS011;12384;48.112;18.418;2022-09-09T12:31:14;7.50;;;7.10;;
24259;SDS011;12384;48.112;18.418;2022-09-09T12:33:48;7.30;;;7.00;;
24259;SDS011;12384;48.112;18.418;2022-09-09T12:36:19;7.45;;;6.97;;
24259;SDS011;12384;48.112;18.418;2022-09-09T12:38:53;7.13;;;6.82;;
24259;SDS011;12384;48.112;18.418;2022-09-09T12:41:25;7.82;;;7.43;;
24259;SDS011;12384;48.112;18.418;2022-09-09T12:44:03;7.70;;;7.40;;
24259;SDS011;12384;48.112;18.418;2022-09-09T12:46:35;7.15;;;6.85;;
24259;SDS011;12384;48.112;18.418;2022-09-09T12:49:18;7.95;;;7.55;;
24259;SDS011;12384;48.112;18.418;2022-09-09T12:51:54;8.30;;;7.80;;
24259;SDS011;12384;48.112;18.418;2022-09-09T12:54:25;8.50;;;8.10;;
24259;SDS011;12384;48.112;18.418;2022-09-09T12:56:54;8.60;;;8.10;;
24259;SDS011;12384;48.112;18.418;2022-09-09T12:59:24;8.00;;;7.57;;
24259;SDS011;12384;48.112;18.418;2022-09-09T13:01:57;7.47;;;7.07;;
24259;SDS011;12384;48.112;18.418;2022-09-09T13:04:26;7.97;;;7.57;;
24259;SDS011;12384;48.112;18.418;2022-09-09T13:07:04;8.20;;;7.80;;
24259;SDS011;12384;48.112;18.418;2022-09-09T13:09:39;7.50;;;7.10;;
24259;SDS011;12384;48.112;18.418;2022-09-09T13:12:10;7.38;;;7.07;;
24259;SDS011;12384;48.112;18.418;2022-09-09T13:14:43;7.55;;;6.95;;
24259;SDS011;12384;48.112;18.418;2022-09-09T13:17:17;7.70;;;7.30;;
24259;SDS011;12384;48.112;18.418;2022-09-09T13:19:48;7.93;;;7.53;;
24259;SDS011;12384;48.112;18.418;2022-09-09T13:22:23;7.30;;;6.90;;
24259;SDS011;12384;48.112;18.418;2022-09-09T13:24:59;7.50;;;7.20;;
24259;SDS011;12384;48.112;18.418;2022-09-09T13:27:30;7.30;;;6.80;;
24259;SDS011;12384;48.112;18.418;2022-09-09T13:30:01;7.35;;;6.95;;
24259;SDS011;12384;48.112;18.418;2022-09-09T13:32:29;7.22;;;6.93;;
24259;SDS011;12384;48.112;18.418;2022-09-09T13:34:59;7.80;;;7.40;;
24259;SDS011;12384;48.112;18.418;2022-09-09T13:37:30;7.00;;;6.70;;
24259;SDS011;12384;48.112;18.418;2022-09-09T13:40:04;7.40;;;7.10;;
24259;SDS011;12384;48.112;18.418;2022-09-09T13:42:34;8.00;;;7.60;;
24259;SDS011;12384;48.112;18.418;2022-09-09T13:45:14;7.47;;;6.97;;
24259;SDS011;12384;48.112;18.418;2022-09-09T13:47:47;7.20;;;6.78;;
24259;SDS011;12384;48.112;18.418;2022-09-09T13:50:19;7.82;;;7.32;;
24259;SDS011;12384;48.112;18.418;2022-09-09T13:52:49;8.15;;;7.75;;
24259;SDS011;12384;48.112;18.418;2022-09-09T13:55:19;8.55;;;8.15;;
24259;SDS011;12384;48.112;18.418;2022-09-09T13:57:52;7.10;;;6.80;;
24259;SDS011;12384;48.112;18.418;2022-09-09T14:00:22;7.13;;;6.72;;
24259;SDS011;12384;48.112;18.418;2022-09-09T14:02:51;7.45;;;7.05;;
24259;SDS011;12384;48.112;18.418;2022-09-09T14:05:21;7.30;;;6.90;;
24259;SDS011;12384;48.112;18.418;2022-09-09T14:07:50;7.50;;;7.10;;
24259;SDS011;12384;48.112;18.418;2022-09-09T14:10:20;8.15;;;7.65;;
24259;SDS011;12384;48.112;18.418;2022-09-09T14:12:48;7.78;;;7.38;;
24259;SDS011;12384;48.112;18.418;2022-09-09T14:15:17;8.10;;;7.70;;
24259;SDS011;12384;48.112;18.418;2022-09-09T14:17:45;14.32;;;10.00;;
24259;SDS011;12384;48.112;18.418;2022-09-09T14:20:15;10.73;;;9.82;;
24259;SDS011;12384;48.112;18.418;2022-09-09T14:22:44;9.18;;;8.57;;
24259;SDS011;12384;48.112;18.418;2022-09-09T14:25:12;9.20;;;8.60;;
24259;SDS011;12384;48.112;18.418;2022-09-09T14:27:42;14.65;;;9.68;;
24259;SDS011;12384;48.112;18.418;2022-09-09T14:30:12;8.85;;;8.23;;
24259;SDS011;12384;48.112;18.418;2022-09-09T14:32:40;8.00;;;7.60;;
24259;SDS011;12384;48.112;18.418;2022-09-09T14:35:09;8.30;;;7.90;;
24259;SDS011;12384;48.112;18.418;2022-09-09T14:37:38;8.55;;;8.00;;
24259;SDS011;12384;48.112;18.418;2022-09-09T14:40:06;8.10;;;7.70;;
24259;SDS011;12384;48.112;18.418;2022-09-09T14:42:35;8.07;;;7.65;;
24259;SDS011;12384;48.112;18.418;2022-09-09T14:45:06;7.75;;;7.35;;
24259;SDS011;12384;48.112;18.418;2022-09-09T14:47:34;7.97;;;7.57;;
24259;SDS011;12384;48.112;18.418;2022-09-09T14:50:04;7.47;;;7.18;;
24259;SDS011;12384;48.112;18.418;2022-09-09T14:52:34;8.07;;;7.57;;
24259;SDS011;12384;48.112;18.418;2022-09-09T14:55:03;8.45;;;7.68;;
24259;SDS011;12384;48.112;18.418;2022-09-09T14:57:32;9.15;;;8.02;;
24259;SDS011;12384;48.112;18.418;2022-09-09T15:00:01;21.65;;;9.60;;
24259;SDS011;12384;48.112;18.418;2022-09-09T15:02:33;11.50;;;8.55;;
24259;SDS011;12384;48.112;18.418;2022-09-09T15:05:01;7.70;;;7.30;;
24259;SDS011;12384;48.112;18.418;2022-09-09T15:07:30;8.23;;;7.82;;